Flight Track Log - Related Links

Times and Time Zones

All times are in EDT time to prevent confusion due to time zone crossing. See the USC110 flight status page for this flight to view local times or setup timezone preferences in your user account.

Time Position Orientation Groundspeed Altitude Reporting Facility
EDT Latitude Longitude Course Direction KTS MPH feet Rate Location/Type
Wed 05:28:03 AM 39.8197 -82.9219 147° Southeast 87 100 1,100  Level Indianapolis Center
Wed 05:29:07 AM 39.7994 -82.9047 147° Southeast 99 114 1,900 768 Climbing Indianapolis Center
Wed 05:30:08 AM 39.7678 -82.9039 179° South 114 131 2,700 787 Climbing Indianapolis Center
Wed 05:31:09 AM 39.7353 -82.8883 160° South 120 138 3,500 793 Climbing Indianapolis Center
Wed 05:32:09 AM 39.7033 -82.8714 158° South 121 139 4,300 744 Climbing Indianapolis Center
Wed 05:33:10 AM 39.6703 -82.8631 169° South 119 137 5,000 793 Climbing Indianapolis Center
Wed 05:34:10 AM 39.6361 -82.8528 167° South 123 142 5,900 843 Climbing Indianapolis Center
Wed 05:35:11 AM 39.5992 -82.8403 165° South 130 150 6,700 738 Climbing Indianapolis Center
Wed 05:36:12 AM 39.5628 -82.8281 165° South 135 155 7,400 694 Climbing Indianapolis Center
Wed 05:37:12 AM 39.5225 -82.8125 163° South 141 162 8,100 744 Climbing Indianapolis Center
Wed 05:38:13 AM 39.4822 -82.8006 167° South 145 167 8,900 446 Climbing Indianapolis Center
Wed 05:39:13 AM 39.4397 -82.7894 169° South 151 174 9,000 50 Climbing Indianapolis Center
Wed 05:40:14 AM 39.3911 -82.7733 166° South 168 193 9,000  Level Indianapolis Center
Wed 05:41:14 AM 39.3394 -82.7569 166° South 183 211 9,000  Level Indianapolis Center
Wed 05:42:15 AM 39.2889 -82.7386 164° South 186 214 9,000  Level Indianapolis Center
Wed 05:43:16 AM 39.2378 -82.7231 167° South 187 215 9,000  Level Indianapolis Center
Wed 05:44:16 AM 39.1881 -82.7069 166° South 184 212 9,000  Level Indianapolis Center
Wed 05:45:17 AM 39.1472 -82.6911 163° South 175 201 9,000  Level Indianapolis Center
Wed 05:46:17 AM 39.0906 -82.6708 164° South 176 203 9,000  Level Indianapolis Center
Wed 05:47:18 AM 39.0433 -82.6581 168° South 174 200 9,000  Level Indianapolis Center
Wed 05:48:18 AM 38.9964 -82.6428 166° South 174 200 9,000  Level Indianapolis Center
Wed 05:49:19 AM 38.9489 -82.6283 167° South 174 200 9,000  Level Indianapolis Center
Wed 05:50:19 AM 38.9017 -82.6133 166° South 175 201 9,000  Level Indianapolis Center
Wed 05:51:20 AM 38.8556 -82.5992 167° South 171 197 9,000  Level Indianapolis Center
Wed 05:52:20 AM 38.8094 -82.5814 163° South 171 197 9,000  Level Indianapolis Center
Wed 05:53:21 AM 38.7622 -82.5678 167° South 173 199 9,000  Level Indianapolis Center
Wed 05:54:21 AM 38.7161 -82.5514 164° South 173 199 9,000  Level Indianapolis Center
Wed 05:55:22 AM 38.6697 -82.5356 165° South 172 198 9,000  Level Indianapolis Center
Wed 05:56:22 AM 38.6244 -82.5219 167° South 172 198 9,000  Level Indianapolis Center
Wed 05:57:23 AM 38.5778 -82.5044 164° South 173 199 9,000  Level Indianapolis Center
Wed 05:58:23 AM 38.5311 -82.4917 168° South 172 198 9,000  Level Indianapolis Center
Wed 05:59:24 AM 38.4833 -82.4767 166° South 172 198 9,000  Level Indianapolis Center
Wed 06:00:24 AM 38.4364 -82.4600 164° South 174 200 9,000  Level Indianapolis Center
Wed 06:01:25 AM 38.3908 -82.4453 166° South 171 197 9,000  Level Indianapolis Center
Wed 06:02:25 AM 38.3447 -82.4314 167° South 171 197 9,000  Level Indianapolis Center
Wed 06:03:26 AM 38.2986 -82.4167 166° South 171 197 9,000  Level Indianapolis Center
Wed 06:04:27 AM 38.2536 -82.4017 165° South 169 194 9,000  Level Indianapolis Center
Wed 06:05:27 AM 38.2067 -82.3875 167° South 172 198 9,000  Level Indianapolis Center
Wed 06:06:28 AM 38.1614 -82.3731 166° South 170 196 9,000  Level Indianapolis Center
Wed 06:07:28 AM 38.1169 -82.3600 167° South 166 191 9,000  Level Indianapolis Center
Wed 06:08:29 AM 38.0653 -82.3436 166° South 164 189 9,000  Level Indianapolis Center
Wed 06:09:29 AM 38.0181 -82.3289 166° South 170 196 9,000  Level Indianapolis Center
Wed 06:10:30 AM 37.9719 -82.3128 165° South 171 197 9,000  Level Indianapolis Center
Wed 06:11:31 AM 37.9253 -82.2969 165° South 173 199 9,000  Level Indianapolis Center
Wed 06:12:31 AM 37.8797 -82.2828 166° South 169 194 9,000  Level Indianapolis Center
Wed 06:13:32 AM 37.8319 -82.2683 167° South 174 200 9,000  Level Indianapolis Center
Wed 06:14:32 AM 37.7861 -82.2539 166° South 172 198 9,000  Level Indianapolis Center
Wed 06:15:33 AM 37.7400 -82.2394 166° South 170 196 9,000  Level Indianapolis Center
Wed 06:16:34 AM 37.6922 -82.2244 166° South 174 200 9,000  Level Indianapolis Center
Wed 06:17:34 AM 37.6444 -82.2083 165° South 176 203 9,000  Level Indianapolis Center
Wed 06:18:35 AM 37.5964 -82.1936 166° South 177 204 9,000  Level Indianapolis Center
Wed 06:19:35 AM 37.5494 -82.1794 167° South 174 200 9,000  Level Indianapolis Center
Wed 06:20:36 AM 37.5017 -82.1644 166° South 175 201 9,000  Level Indianapolis Center
Wed 06:21:36 AM 37.4533 -82.1503 167° South 177 204 9,000  Level Indianapolis Center
Wed 06:22:37 AM 37.4042 -82.1336 165° South 180 207 9,000  Level Indianapolis Center
Wed 06:23:38 AM 37.3567 -82.1203 167° South 177 204 9,000  Level Indianapolis Center
Wed 06:24:38 AM 37.3094 -82.1061 167° South 174 200 9,000  Level Indianapolis Center
Wed 06:25:39 AM 37.2625 -82.0908 165° South 174 200 9,000  Level Indianapolis Center
Wed 06:26:39 AM 37.2153 -82.0761 166° South 174 200 9,000  Level Indianapolis Center
Wed 06:27:40 AM 37.1683 -82.0606 165° South 174 200 9,000  Level Indianapolis Center
Wed 06:28:41 AM 37.1219 -82.0464 166° South 172 198 9,000  Level Indianapolis Center
Wed 06:29:41 AM 37.0750 -82.0333 167° South 172 198 9,000  Level Indianapolis Center
Wed 06:30:42 AM 37.0281 -82.0183 166° South 174 200 9,000  Level Indianapolis Center
Wed 06:31:42 AM 36.9825 -82.0047 167° South 169 194 9,000  Level Indianapolis Center
Wed 06:32:43 AM 36.9353 -81.9883 164° South 173 199 9,000  Level Indianapolis Center
Wed 06:33:43 AM 36.8883 -81.9761 168° South 171 197 9,000  Level Indianapolis Center
Wed 06:34:44 AM 36.8414 -81.9614 166° South 172 198 9,000  Level Indianapolis Center
Wed 06:35:45 AM 36.7936 -81.9469 166° South 174 200 9,000  Level Indianapolis Center
Wed 06:36:45 AM 36.7464 -81.9325 166° South 174 200 9,000  Level Indianapolis Center
Wed 06:37:46 AM 36.6906 -81.9153 166° South 177 204 9,000  Level Indianapolis Center
Wed 06:38:47 AM 36.6433 -81.9011 166° South 175 201 9,000  Level Indianapolis Center
Wed 06:39:47 AM 36.5958 -81.8872 167° South 175 201 9,000  Level Indianapolis Center

Login

Don't have an account? Register now (free) for customized features, flight alerts, and more!